Terminal Aerodrome Forecast
Issued by NWS Huntsville, AL

Home | Current Version | Previous Version | Text Only | Print | Product List | Glossary On
Versions: 1 2 3 4 5 6 7 8 9 10 11 12 13 14 15 16 17 18 19 20 21
000
FTUS44 KHUN 240949 AAB
TAFMSL
TAF AMD
KMSL 240949Z 2410/2506 VRB03KT P6SM VCSH BKN015 OVC060
      TEMPO 2410/2412 SCT015 BKN040
     FM241400 33004KT P6SM SCT150
     FM242000 34006KT P6SM FEW250=

USA.gov is the U.S. government's official web portal to all federal, state and local government web resources and services.